航空気象通報

ウインドサーファーのための航空気象通報による風予報です。

4/30-5/1の航空気象通報(国内、海外)

2008年04月30日 22時23分01秒 | TAF
羽田空港
TAF RJTT 300845Z 301812 18006KT 4000 BR FEW030
BECMG 0003 20016KT 8000 NSW
日本時間1日03-09時:180度から6ノットの風
09-12時:風が変化
12-21時:200度から16ノットの風


那覇空港
TAF ROAH 300846Z 301812 22016KT 8000 FEW015 BKN025
TEMPO 1821 2000 +SHRA FEW008 SCT015 FEW020CB BKN030
TEMPO 2103 4000 SHRA FEW008 SCT015 FEW020CB BKN030
BECMG 0912 33014KT
日本時間1日03-18時:220度から16ノットの風
18-21時:風が変化
21時:330度から14ノットの風
、但し、03-12時:一時、

マウイのカフルイ空港
PHOG 301135Z 301212 03006KT P6SM FEW050 OVC150
FM1600 05012G18KT P6SM SCT050 OVC150
FM2200 05018G26KT P6SM SCT050 BKN150
FM0500 05008KT P6SM FEW050 BKN150
ハワイ時間30日02-06時:030度から6ノットの風
06-12時:050度から12ノット、突風18ノット
12-19時:050度から18ノット、突風26ノット
19時-1日02時:050度から8ノットの風


サイパン空港
TAFPQ TAF AMD PGSN 301210Z 301212 08009KT P6SM VCSH FEW020
マリアナ時間30日22時-1日22時:080度から9ノットの風
コメント
この記事をはてなブックマークに追加

4/29-30の航空気象通報(国内、海外)

2008年04月29日 22時00分50秒 | TAF
羽田空港
TAF RJTT 290844Z 291812 01008KT 9999 FEW030
BECMG 0003 08008KT
BECMG 0306 15010KT
日本時間30日03-09時:010度から8ノットの風
09-12時:風が変化
12時:080度から8ノットの風
12-15時:風が変化
15-21時:150度から10ノットの風


那覇空港
TAF ROAH 290840Z 291812 08010KT 9999 FEW015 SCT030
日本時間30日03-21時:080度から10ノットの風


マウイのカフルイ空港
PHOG 291123Z 291212 07008G16KT P6SM FEW040 BKN250
FM1900 06018G28KT P6SM SCT040 BKN200
FM0600 07010G18KT P6SM FEW040 SCT250
ハワイ時間29日02-09時:070度から8ノット、突風16ノット
09-20時:060度から18ノット、突風28ノット

20時-30日02時:070度から10ノット、突風18ノット


サイパン空港
PGSN 291125Z 291212 09013KT P6SM VCSH SCT020
マリアナ時間29日22時-30日22時:090度から13ノットの風

コメント
この記事をはてなブックマークに追加

4/28-29の航空気象通報(国内、海外)

2008年04月28日 23時33分22秒 | TAF
羽田空港
TAF RJTT 280848Z 281812 03010KT 9999 FEW015 SCT030
BECMG 0003 13008KT
日本時間29日03-09時:030度から10ノットの風
09-12時:風が変化
12-21時:130度から8ノットの風


那覇空港
TAF ROAH 280841Z 281812 07012KT 9999 FEW020 SCT045
日本時間29日03-21時:070度から12ノットの風


マウイのカフルイ空港
PHOG 281129Z 281212 05010G16KT P6SM FEW040 BKN250
FM2100 05018G25KT P6SM SCT050 BKN250
FM0600 05010G16KT P6SM FEW040 BKN250
ハワイ時間28日02-11時:050度から10ノット、突風16ノット
11-20時:050度から18ノット、突風25ノット
20時-29日02時:050度から10ノット、突風16ノット


サイパン空港
PGSN 281120Z 281212 09012KT P6SM VCSH SCT023
マリアナ時間28日22時-29日22時:090度から12ノットの風

コメント
この記事をはてなブックマークに追加

4/27-28の航空気象通報(国内、海外)

2008年04月27日 22時11分50秒 | TAF
羽田空港
TAF RJTT 270841Z 271812 01010KT 9000 FEW030
BECMG 0003 07010KT
日本時間28日03-09時:010度から10ノットの風
09-12時:風が変化
12-21時:070度から10ノットの風


那覇空港
TAF ROAH 270843Z 271812 10006KT 9999 FEW025
BECMG 0306 08008KT
日本時間28日03-12時:100度から6ノットの風
12-15時:風が変化
15-21時:080度から8ノットの風


マウイのカフルイ空港
PHOG 271122Z 271212 05008KT P6SM SCT040
FM1900 07015G22KT P6SM SCT040
FM0400 05010KT P6SM SCT040
ハワイ時間27日02-09時:050度から8ノットの風
09-18時:050度から15ノット、突風22ノット
18時-28日02時:050度から10ノットの風


サイパン空港
PGSN 271120Z 271212 09011KT P6SM VCSH SCT020
マリアナ時間27日22時-28日22時:090度から11ノットの風
コメント
この記事をはてなブックマークに追加

4/27の航空気象通報(国内)

2008年04月26日 18時03分06秒 | TAF
羽田空港
TAF RJTT 260839Z 261812 34005KT 9999 FEW015 BKN030
TEMPO 2124 4000 SHRA BR
BECMG 0003 10009KT
BECMG 0306 17017KT
日本時間27日03-09時:340度から5ノットの風
09-12時:風が変化
12時:100度から9ノットの風
12-15時:風が変化
15-21時:170度から17ノットの風

那覇空港
TAF ROAH 260838Z 261812 06008KT 9999 FEW035
日本時間27日03-21時:060度から8ノットの風
コメント
この記事をはてなブックマークに追加